sensor_id;sensor_type;location;lat;lon;timestamp;temperature;humidity
46440;DHT22;32138;50.966;6.968;2022-11-27T00:00:38;8.00;93.90
46440;DHT22;32138;50.966;6.968;2022-11-27T00:01:39;7.80;93.90
46440;DHT22;32138;50.966;6.968;2022-11-27T00:02:40;7.80;94.00
46440;DHT22;32138;50.966;6.968;2022-11-27T00:03:41;7.70;94.00
46440;DHT22;32138;50.966;6.968;2022-11-27T00:04:42;7.70;94.20
46440;DHT22;32138;50.966;6.968;2022-11-27T00:05:54;7.60;94.20
46440;DHT22;32138;50.966;6.968;2022-11-27T00:06:55;7.80;94.30
46440;DHT22;32138;50.966;6.968;2022-11-27T00:07:56;7.90;94.00
46440;DHT22;32138;50.966;6.968;2022-11-27T00:08:59;7.90;93.80
46440;DHT22;32138;50.966;6.968;2022-11-27T00:10:05;7.70;94.00
46440;DHT22;32138;50.966;6.968;2022-11-27T00:11:08;7.70;94.20
46440;DHT22;32138;50.966;6.968;2022-11-27T00:12:12;7.60;94.20
46440;DHT22;32138;50.966;6.968;2022-11-27T00:13:13;7.60;94.30
46440;DHT22;32138;50.966;6.968;2022-11-27T00:14:15;7.70;94.30
46440;DHT22;32138;50.966;6.968;2022-11-27T00:15:16;7.60;94.40
46440;DHT22;32138;50.966;6.968;2022-11-27T00:16:19;7.80;94.40
46440;DHT22;32138;50.966;6.968;2022-11-27T00:17:20;7.70;94.10
46440;DHT22;32138;50.966;6.968;2022-11-27T00:18:21;7.70;94.20
46440;DHT22;32138;50.966;6.968;2022-11-27T00:19:22;7.60;94.20
46440;DHT22;32138;50.966;6.968;2022-11-27T00:20:22;7.70;94.20
46440;DHT22;32138;50.966;6.968;2022-11-27T00:21:31;7.70;94.30
46440;DHT22;32138;50.966;6.968;2022-11-27T00:22:32;7.70;94.20
46440;DHT22;32138;50.966;6.968;2022-11-27T00:23:34;7.70;94.20
46440;DHT22;32138;50.966;6.968;2022-11-27T00:24:35;7.70;94.10
46440;DHT22;32138;50.966;6.968;2022-11-27T00:25:36;7.60;94.30
46440;DHT22;32138;50.966;6.968;2022-11-27T00:26:36;7.70;94.30
46440;DHT22;32138;50.966;6.968;2022-11-27T00:27:37;7.70;94.20
46440;DHT22;32138;50.966;6.968;2022-11-27T00:28:38;7.70;94.10
46440;DHT22;32138;50.966;6.968;2022-11-27T00:29:39;7.70;94.10
46440;DHT22;32138;50.966;6.968;2022-11-27T00:30:39;7.70;94.40
46440;DHT22;32138;50.966;6.968;2022-11-27T00:31:40;7.70;94.10
46440;DHT22;32138;50.966;6.968;2022-11-27T00:32:41;7.90;93.90
46440;DHT22;32138;50.966;6.968;2022-11-27T00:33:42;7.80;93.80
46440;DHT22;32138;50.966;6.968;2022-11-27T00:34:42;7.80;94.00
46440;DHT22;32138;50.966;6.968;2022-11-27T00:35:43;7.80;94.00
46440;DHT22;32138;50.966;6.968;2022-11-27T00:36:44;7.70;93.80
46440;DHT22;32138;50.966;6.968;2022-11-27T00:37:45;7.80;94.00
46440;DHT22;32138;50.966;6.968;2022-11-27T00:38:45;7.90;94.00
46440;DHT22;32138;50.966;6.968;2022-11-27T00:39:46;7.90;93.60
46440;DHT22;32138;50.966;6.968;2022-11-27T00:40:47;7.90;93.80
46440;DHT22;32138;50.966;6.968;2022-11-27T00:41:48;7.90;94.00
46440;DHT22;32138;50.966;6.968;2022-11-27T00:42:49;7.70;94.00
46440;DHT22;32138;50.966;6.968;2022-11-27T00:43:50;7.60;94.20
46440;DHT22;32138;50.966;6.968;2022-11-27T00:44:51;7.80;94.00
46440;DHT22;32138;50.966;6.968;2022-11-27T00:45:52;7.80;93.90
46440;DHT22;32138;50.966;6.968;2022-11-27T00:46:52;7.80;93.90
46440;DHT22;32138;50.966;6.968;2022-11-27T00:47:53;7.80;93.40
46440;DHT22;32138;50.966;6.968;2022-11-27T00:48:55;7.80;93.60
46440;DHT22;32138;50.966;6.968;2022-11-27T00:49:56;7.80;93.90
46440;DHT22;32138;50.966;6.968;2022-11-27T00:51:05;7.80;93.90
46440;DHT22;32138;50.966;6.968;2022-11-27T00:52:06;7.80;93.70
46440;DHT22;32138;50.966;6.968;2022-11-27T00:53:07;7.60;93.90
46440;DHT22;32138;50.966;6.968;2022-11-27T00:54:08;7.70;94.10
46440;DHT22;32138;50.966;6.968;2022-11-27T00:55:09;7.70;93.90
46440;DHT22;32138;50.966;6.968;2022-11-27T00:56:22;7.80;93.80
46440;DHT22;32138;50.966;6.968;2022-11-27T00:57:24;7.80;93.80
46440;DHT22;32138;50.966;6.968;2022-11-27T00:58:25;7.70;93.70
46440;DHT22;32138;50.966;6.968;2022-11-27T00:59:27;7.60;93.90
46440;DHT22;32138;50.966;6.968;2022-11-27T01:00:27;7.70;94.20
46440;DHT22;32138;50.966;6.968;2022-11-27T01:01:34;7.60;93.80
46440;DHT22;32138;50.966;6.968;2022-11-27T01:02:36;7.60;93.90
46440;DHT22;32138;50.966;6.968;2022-11-27T01:03:37;7.60;94.00
46440;DHT22;32138;50.966;6.968;2022-11-27T01:04:38;7.60;94.10
46440;DHT22;32138;50.966;6.968;2022-11-27T01:05:39;7.60;93.90
46440;DHT22;32138;50.966;6.968;2022-11-27T01:06:40;7.60;94.10
46440;DHT22;32138;50.966;6.968;2022-11-27T01:07:41;7.70;93.90
46440;DHT22;32138;50.966;6.968;2022-11-27T01:08:42;7.70;93.90
46440;DHT22;32138;50.966;6.968;2022-11-27T01:09:43;7.80;93.60
46440;DHT22;32138;50.966;6.968;2022-11-27T01:10:55;7.70;93.80
46440;DHT22;32138;50.966;6.968;2022-11-27T01:11:57;7.60;93.90
46440;DHT22;32138;50.966;6.968;2022-11-27T01:12:57;7.60;93.90
46440;DHT22;32138;50.966;6.968;2022-11-27T01:14:04;7.50;93.90
46440;DHT22;32138;50.966;6.968;2022-11-27T01:15:07;7.50;94.20
46440;DHT22;32138;50.966;6.968;2022-11-27T01:16:11;7.40;94.20
46440;DHT22;32138;50.966;6.968;2022-11-27T01:17:16;7.50;94.10
46440;DHT22;32138;50.966;6.968;2022-11-27T01:18:17;7.40;94.20
46440;DHT22;32138;50.966;6.968;2022-11-27T01:19:17;7.30;94.50
46440;DHT22;32138;50.966;6.968;2022-11-27T01:20:18;7.40;94.40
46440;DHT22;32138;50.966;6.968;2022-11-27T01:21:20;7.40;94.40
46440;DHT22;32138;50.966;6.968;2022-11-27T01:22:21;7.40;94.40
46440;DHT22;32138;50.966;6.968;2022-11-27T01:23:22;7.40;94.10
46440;DHT22;32138;50.966;6.968;2022-11-27T01:24:24;7.40;94.30
46440;DHT22;32138;50.966;6.968;2022-11-27T01:25:25;7.40;94.30
46440;DHT22;32138;50.966;6.968;2022-11-27T01:26:26;7.50;94.10
46440;DHT22;32138;50.966;6.968;2022-11-27T01:27:27;7.40;94.20
46440;DHT22;32138;50.966;6.968;2022-11-27T01:28:28;7.30;94.40
46440;DHT22;32138;50.966;6.968;2022-11-27T01:29:29;7.30;94.40
46440;DHT22;32138;50.966;6.968;2022-11-27T01:30:30;7.20;94.40
46440;DHT22;32138;50.966;6.968;2022-11-27T01:31:32;7.30;94.50
46440;DHT22;32138;50.966;6.968;2022-11-27T01:32:33;7.40;94.40
46440;DHT22;32138;50.966;6.968;2022-11-27T01:33:34;7.30;94.30
46440;DHT22;32138;50.966;6.968;2022-11-27T01:34:35;7.30;94.30
46440;DHT22;32138;50.966;6.968;2022-11-27T01:35:36;7.40;94.40
46440;DHT22;32138;50.966;6.968;2022-11-27T01:36:36;7.40;94.30
46440;DHT22;32138;50.966;6.968;2022-11-27T01:37:37;7.40;94.10
46440;DHT22;32138;50.966;6.968;2022-11-27T01:38:38;7.40;94.20
46440;DHT22;32138;50.966;6.968;2022-11-27T01:39:39;7.40;94.10
46440;DHT22;32138;50.966;6.968;2022-11-27T01:40:40;7.40;94.30
46440;DHT22;32138;50.966;6.968;2022-11-27T01:41:40;7.50;94.30
46440;DHT22;32138;50.966;6.968;2022-11-27T01:42:41;7.60;94.00
46440;DHT22;32138;50.966;6.968;2022-11-27T01:44:03;7.60;93.70
46440;DHT22;32138;50.966;6.968;2022-11-27T01:45:24;7.40;93.90
46440;DHT22;32138;50.966;6.968;2022-11-27T01:46:39;7.40;94.10
46440;DHT22;32138;50.966;6.968;2022-11-27T01:47:55;7.40;94.10
46440;DHT22;32138;50.966;6.968;2022-11-27T01:50:40;7.50;94.00
46440;DHT22;32138;50.966;6.968;2022-11-27T01:51:58;7.40;94.20
46440;DHT22;32138;50.966;6.968;2022-11-27T01:53:09;7.40;94.10
46440;DHT22;32138;50.966;6.968;2022-11-27T01:54:14;7.40;94.00
46440;DHT22;32138;50.966;6.968;2022-11-27T01:55:31;7.40;94.00
46440;DHT22;32138;50.966;6.968;2022-11-27T01:56:34;7.50;94.00
46440;DHT22;32138;50.966;6.968;2022-11-27T01:57:41;7.60;93.90
46440;DHT22;32138;50.966;6.968;2022-11-27T01:58:44;7.50;94.00
46440;DHT22;32138;50.966;6.968;2022-11-27T01:59:47;7.50;93.80
46440;DHT22;32138;50.966;6.968;2022-11-27T02:00:48;7.60;93.70
46440;DHT22;32138;50.966;6.968;2022-11-27T02:01:49;7.40;93.80
46440;DHT22;32138;50.966;6.968;2022-11-27T02:02:50;7.40;93.90
46440;DHT22;32138;50.966;6.968;2022-11-27T02:03:56;7.40;94.00
46440;DHT22;32138;50.966;6.968;2022-11-27T02:04:57;7.60;93.80
46440;DHT22;32138;50.966;6.968;2022-11-27T02:05:58;7.60;93.80
46440;DHT22;32138;50.966;6.968;2022-11-27T02:06:59;7.60;93.60
46440;DHT22;32138;50.966;6.968;2022-11-27T02:08:05;7.60;93.70
46440;DHT22;32138;50.966;6.968;2022-11-27T02:09:08;7.50;93.50
46440;DHT22;32138;50.966;6.968;2022-11-27T02:10:09;7.50;93.70
46440;DHT22;32138;50.966;6.968;2022-11-27T02:13:01;7.50;93.70
46440;DHT22;32138;50.966;6.968;2022-11-27T02:14:42;7.60;93.70
46440;DHT22;32138;50.966;6.968;2022-11-27T02:25:19;7.40;93.90
46440;DHT22;32138;50.966;6.968;2022-11-27T02:27:07;7.50;93.90
46440;DHT22;32138;50.966;6.968;2022-11-27T02:30:01;7.30;94.10
46440;DHT22;32138;50.966;6.968;2022-11-27T02:31:15;7.30;94.30
46440;DHT22;32138;50.966;6.968;2022-11-27T02:32:26;7.30;94.10
46440;DHT22;32138;50.966;6.968;2022-11-27T02:33:34;7.30;94.00
46440;DHT22;32138;50.966;6.968;2022-11-27T02:35:54;7.50;93.70
46440;DHT22;32138;50.966;6.968;2022-11-27T02:38:16;7.60;93.60
46440;DHT22;32138;50.966;6.968;2022-11-27T02:39:22;7.60;93.40
46440;DHT22;32138;50.966;6.968;2022-11-27T02:40:44;7.40;93.80
46440;DHT22;32138;50.966;6.968;2022-11-27T02:41:58;7.30;94.10
46440;DHT22;32138;50.966;6.968;2022-11-27T02:43:11;7.40;93.90
46440;DHT22;32138;50.966;6.968;2022-11-27T02:44:16;7.40;93.90
46440;DHT22;32138;50.966;6.968;2022-11-27T02:45:38;7.30;94.10
46440;DHT22;32138;50.966;6.968;2022-11-27T02:46:41;7.40;93.90
46440;DHT22;32138;50.966;6.968;2022-11-27T02:47:45;7.30;94.00
46440;DHT22;32138;50.966;6.968;2022-11-27T02:48:49;7.40;93.90
46440;DHT22;32138;50.966;6.968;2022-11-27T02:49:52;7.30;94.00
46440;DHT22;32138;50.966;6.968;2022-11-27T02:50:56;7.40;94.00
46440;DHT22;32138;50.966;6.968;2022-11-27T02:51:58;7.30;94.00
46440;DHT22;32138;50.966;6.968;2022-11-27T02:53:03;7.30;94.20
46440;DHT22;32138;50.966;6.968;2022-11-27T02:54:09;7.20;94.20
46440;DHT22;32138;50.966;6.968;2022-11-27T02:55:17;7.10;94.30
46440;DHT22;32138;50.966;6.968;2022-11-27T02:56:24;7.10;94.40
46440;DHT22;32138;50.966;6.968;2022-11-27T02:57:27;7.00;94.50
46440;DHT22;32138;50.966;6.968;2022-11-27T02:58:29;7.00;94.50
46440;DHT22;32138;50.966;6.968;2022-11-27T02:59:31;6.90;94.70
46440;DHT22;32138;50.966;6.968;2022-11-27T03:00:34;6.90;94.90
46440;DHT22;32138;50.966;6.968;2022-11-27T03:01:42;6.90;94.80
46440;DHT22;32138;50.966;6.968;2022-11-27T03:03:02;6.90;94.80
46440;DHT22;32138;50.966;6.968;2022-11-27T03:04:08;7.10;94.70
46440;DHT22;32138;50.966;6.968;2022-11-27T03:05:15;7.00;94.70
46440;DHT22;32138;50.966;6.968;2022-11-27T03:06:23;7.00;94.60
46440;DHT22;32138;50.966;6.968;2022-11-27T03:07:43;7.00;94.70
46440;DHT22;32138;50.966;6.968;2022-11-27T03:09:03;6.90;94.80
46440;DHT22;32138;50.966;6.968;2022-11-27T03:10:23;6.90;94.70
46440;DHT22;32138;50.966;6.968;2022-11-27T03:11:29;7.00;94.60
46440;DHT22;32138;50.966;6.968;2022-11-27T03:12:30;6.90;94.70
46440;DHT22;32138;50.966;6.968;2022-11-27T03:13:34;6.80;94.80
46440;DHT22;32138;50.966;6.968;2022-11-27T03:14:39;6.90;94.90
46440;DHT22;32138;50.966;6.968;2022-11-27T03:15:50;6.90;94.70
46440;DHT22;32138;50.966;6.968;2022-11-27T03:18:17;6.90;94.70
46440;DHT22;32138;50.966;6.968;2022-11-27T03:20:45;7.00;94.50
46440;DHT22;32138;50.966;6.968;2022-11-27T03:21:55;6.90;94.60
46440;DHT22;32138;50.966;6.968;2022-11-27T03:22:57;7.00;94.60
46440;DHT22;32138;50.966;6.968;2022-11-27T03:23:59;7.00;94.40
46440;DHT22;32138;50.966;6.968;2022-11-27T03:25:00;7.00;94.40
46440;DHT22;32138;50.966;6.968;2022-11-27T03:26:00;7.00;94.40
46440;DHT22;32138;50.966;6.968;2022-11-27T03:27:02;6.90;94.40
46440;DHT22;32138;50.966;6.968;2022-11-27T03:28:07;6.90;94.60
46440;DHT22;32138;50.966;6.968;2022-11-27T03:29:13;6.90;94.60
46440;DHT22;32138;50.966;6.968;2022-11-27T03:30:41;6.90;94.60
46440;DHT22;32138;50.966;6.968;2022-11-27T03:31:43;6.90;94.60
46440;DHT22;32138;50.966;6.968;2022-11-27T03:32:44;6.90;94.60
46440;DHT22;32138;50.966;6.968;2022-11-27T03:33:46;7.10;94.50
46440;DHT22;32138;50.966;6.968;2022-11-27T03:34:47;7.10;94.20
46440;DHT22;32138;50.966;6.968;2022-11-27T03:35:48;7.10;94.20
46440;DHT22;32138;50.966;6.968;2022-11-27T03:36:49;7.10;94.30
46440;DHT22;32138;50.966;6.968;2022-11-27T03:37:50;7.00;94.60
46440;DHT22;32138;50.966;6.968;2022-11-27T03:38:52;7.00;94.30
46440;DHT22;32138;50.966;6.968;2022-11-27T03:39:54;7.00;94.30
46440;DHT22;32138;50.966;6.968;2022-11-27T03:41:08;7.00;94.40
46440;DHT22;32138;50.966;6.968;2022-11-27T03:43:26;7.00;94.40
46440;DHT22;32138;50.966;6.968;2022-11-27T03:44:31;6.90;94.50
46440;DHT22;32138;50.966;6.968;2022-11-27T03:45:57;6.90;94.50
46440;DHT22;32138;50.966;6.968;2022-11-27T03:49:00;6.80;94.60
46440;DHT22;32138;50.966;6.968;2022-11-27T03:54:50;6.90;94.60
46440;DHT22;32138;50.966;6.968;2022-11-27T03:56:04;6.60;94.70
46440;DHT22;32138;50.966;6.968;2022-11-27T03:57:19;6.70;94.90
46440;DHT22;32138;50.966;6.968;2022-11-27T03:58:44;6.70;95.00
46440;DHT22;32138;50.966;6.968;2022-11-27T03:59:49;6.60;94.90
46440;DHT22;32138;50.966;6.968;2022-11-27T04:00:52;6.60;94.90
46440;DHT22;32138;50.966;6.968;2022-11-27T04:01:54;6.60;95.30
46440;DHT22;32138;50.966;6.968;2022-11-27T04:02:55;6.60;95.00
46440;DHT22;32138;50.966;6.968;2022-11-27T04:03:56;6.70;95.00
46440;DHT22;32138;50.966;6.968;2022-11-27T04:04:57;6.60;95.20
46440;DHT22;32138;50.966;6.968;2022-11-27T04:05:58;6.60;95.00
46440;DHT22;32138;50.966;6.968;2022-11-27T04:06:59;6.70;94.90
46440;DHT22;32138;50.966;6.968;2022-11-27T04:07:59;6.80;95.10
46440;DHT22;32138;50.966;6.968;2022-11-27T04:09:00;6.70;94.60
46440;DHT22;32138;50.966;6.968;2022-11-27T04:10:01;6.70;94.70
46440;DHT22;32138;50.966;6.968;2022-11-27T04:11:02;6.70;94.80
46440;DHT22;32138;50.966;6.968;2022-11-27T04:12:03;6.70;94.90
46440;DHT22;32138;50.966;6.968;2022-11-27T04:13:04;6.80;94.60
46440;DHT22;32138;50.966;6.968;2022-11-27T04:14:05;6.80;94.70
46440;DHT22;32138;50.966;6.968;2022-11-27T04:15:06;6.90;94.30
46440;DHT22;32138;50.966;6.968;2022-11-27T04:16:07;7.00;94.50
46440;DHT22;32138;50.966;6.968;2022-11-27T04:17:08;6.80;94.50
46440;DHT22;32138;50.966;6.968;2022-11-27T04:18:09;6.90;94.60
46440;DHT22;32138;50.966;6.968;2022-11-27T04:19:10;6.80;94.50
46440;DHT22;32138;50.966;6.968;2022-11-27T04:20:12;6.80;94.50
46440;DHT22;32138;50.966;6.968;2022-11-27T04:21:14;6.70;94.50
46440;DHT22;32138;50.966;6.968;2022-11-27T04:22:16;6.70;94.60
46440;DHT22;32138;50.966;6.968;2022-11-27T04:23:16;6.80;94.50
46440;DHT22;32138;50.966;6.968;2022-11-27T04:24:17;6.80;94.70
46440;DHT22;32138;50.966;6.968;2022-11-27T04:25:18;6.70;94.70
46440;DHT22;32138;50.966;6.968;2022-11-27T04:26:19;6.80;94.50
46440;DHT22;32138;50.966;6.968;2022-11-27T04:27:19;6.70;94.40
46440;DHT22;32138;50.966;6.968;2022-11-27T04:28:20;6.80;94.70
46440;DHT22;32138;50.966;6.968;2022-11-27T04:29:21;6.90;94.60
46440;DHT22;32138;50.966;6.968;2022-11-27T04:30:22;7.00;94.20
46440;DHT22;32138;50.966;6.968;2022-11-27T04:31:23;7.00;94.30
46440;DHT22;32138;50.966;6.968;2022-11-27T04:32:23;7.10;94.10
46440;DHT22;32138;50.966;6.968;2022-11-27T04:33:24;7.00;94.00
46440;DHT22;32138;50.966;6.968;2022-11-27T04:34:25;6.80;94.40
46440;DHT22;32138;50.966;6.968;2022-11-27T04:35:26;6.90;94.30
46440;DHT22;32138;50.966;6.968;2022-11-27T04:36:27;6.70;94.30
46440;DHT22;32138;50.966;6.968;2022-11-27T04:37:28;6.70;94.60
46440;DHT22;32138;50.966;6.968;2022-11-27T04:38:28;6.70;94.60
46440;DHT22;32138;50.966;6.968;2022-11-27T04:39:29;6.60;94.50
46440;DHT22;32138;50.966;6.968;2022-11-27T04:40:30;6.60;94.90
46440;DHT22;32138;50.966;6.968;2022-11-27T04:41:31;6.60;94.90
46440;DHT22;32138;50.966;6.968;2022-11-27T04:42:31;6.60;94.80
46440;DHT22;32138;50.966;6.968;2022-11-27T04:43:32;6.60;94.80
46440;DHT22;32138;50.966;6.968;2022-11-27T04:44:33;6.70;94.60
46440;DHT22;32138;50.966;6.968;2022-11-27T04:45:34;6.60;94.90
46440;DHT22;32138;50.966;6.968;2022-11-27T04:46:35;6.70;94.80
46440;DHT22;32138;50.966;6.968;2022-11-27T04:47:35;6.70;94.70
46440;DHT22;32138;50.966;6.968;2022-11-27T04:48:36;6.90;94.60
46440;DHT22;32138;50.966;6.968;2022-11-27T04:49:37;6.90;94.30
46440;DHT22;32138;50.966;6.968;2022-11-27T04:50:38;6.90;94.20
46440;DHT22;32138;50.966;6.968;2022-11-27T04:51:39;6.90;94.20
46440;DHT22;32138;50.966;6.968;2022-11-27T04:52:39;6.90;94.20
46440;DHT22;32138;50.966;6.968;2022-11-27T04:53:40;6.90;94.30
46440;DHT22;32138;50.966;6.968;2022-11-27T04:54:41;6.80;94.40
46440;DHT22;32138;50.966;6.968;2022-11-27T04:55:42;6.80;94.40
46440;DHT22;32138;50.966;6.968;2022-11-27T04:56:43;6.80;94.40
46440;DHT22;32138;50.966;6.968;2022-11-27T04:57:43;6.70;94.60
46440;DHT22;32138;50.966;6.968;2022-11-27T04:58:44;6.80;94.60
46440;DHT22;32138;50.966;6.968;2022-11-27T04:59:45;6.60;94.70
46440;DHT22;32138;50.966;6.968;2022-11-27T05:00:46;6.60;94.70
46440;DHT22;32138;50.966;6.968;2022-11-27T05:01:46;6.70;94.80
46440;DHT22;32138;50.966;6.968;2022-11-27T05:02:47;6.70;94.70
46440;DHT22;32138;50.966;6.968;2022-11-27T05:03:48;6.80;94.60
46440;DHT22;32138;50.966;6.968;2022-11-27T05:04:49;6.90;94.40
46440;DHT22;32138;50.966;6.968;2022-11-27T05:05:56;6.80;94.30
46440;DHT22;32138;50.966;6.968;2022-11-27T05:06:57;6.80;94.30
46440;DHT22;32138;50.966;6.968;2022-11-27T05:07:58;6.80;94.50
46440;DHT22;32138;50.966;6.968;2022-11-27T05:08:59;6.90;94.30
46440;DHT22;32138;50.966;6.968;2022-11-27T05:10:01;6.80;94.30
46440;DHT22;32138;50.966;6.968;2022-11-27T05:11:06;6.70;94.50
46440;DHT22;32138;50.966;6.968;2022-11-27T05:12:08;6.70;94.70
46440;DHT22;32138;50.966;6.968;2022-11-27T05:13:09;6.70;94.50
46440;DHT22;32138;50.966;6.968;2022-11-27T05:14:10;6.70;94.60
46440;DHT22;32138;50.966;6.968;2022-11-27T05:15:22;6.80;94.50
46440;DHT22;32138;50.966;6.968;2022-11-27T05:16:22;6.70;94.50
46440;DHT22;32138;50.966;6.968;2022-11-27T05:17:23;6.70;94.90
46440;DHT22;32138;50.966;6.968;2022-11-27T05:18:24;6.70;95.00
46440;DHT22;32138;50.966;6.968;2022-11-27T05:19:27;6.80;94.70
46440;DHT22;32138;50.966;6.968;2022-11-27T05:20:29;6.80;94.50
46440;DHT22;32138;50.966;6.968;2022-11-27T05:21:29;6.80;94.40
46440;DHT22;32138;50.966;6.968;2022-11-27T05:22:30;6.80;94.60
46440;DHT22;32138;50.966;6.968;2022-11-27T05:23:32;6.70;94.50
46440;DHT22;32138;50.966;6.968;2022-11-27T05:24:33;6.70;94.50
46440;DHT22;32138;50.966;6.968;2022-11-27T05:25:34;6.70;94.30
46440;DHT22;32138;50.966;6.968;2022-11-27T05:26:35;6.70;94.30
46440;DHT22;32138;50.966;6.968;2022-11-27T05:27:36;6.70;94.60
46440;DHT22;32138;50.966;6.968;2022-11-27T05:28:37;6.70;94.70
46440;DHT22;32138;50.966;6.968;2022-11-27T05:29:37;6.70;94.60
46440;DHT22;32138;50.966;6.968;2022-11-27T05:30:39;6.70;94.60
46440;DHT22;32138;50.966;6.968;2022-11-27T05:31:40;6.70;94.60
46440;DHT22;32138;50.966;6.968;2022-11-27T05:32:41;6.80;94.60
46440;DHT22;32138;50.966;6.968;2022-11-27T05:33:42;7.10;94.40
46440;DHT22;32138;50.966;6.968;2022-11-27T05:34:42;7.00;94.10
46440;DHT22;32138;50.966;6.968;2022-11-27T05:35:44;6.90;94.20
46440;DHT22;32138;50.966;6.968;2022-11-27T05:36:45;6.90;94.50
46440;DHT22;32138;50.966;6.968;2022-11-27T05:37:46;7.00;94.40
46440;DHT22;32138;50.966;6.968;2022-11-27T05:38:47;7.00;94.50
46440;DHT22;32138;50.966;6.968;2022-11-27T05:39:48;6.80;94.30
46440;DHT22;32138;50.966;6.968;2022-11-27T05:40:48;6.80;94.30
46440;DHT22;32138;50.966;6.968;2022-11-27T05:41:49;6.80;94.40
46440;DHT22;32138;50.966;6.968;2022-11-27T05:42:50;7.00;94.40
46440;DHT22;32138;50.966;6.968;2022-11-27T05:43:51;7.00;94.20
46440;DHT22;32138;50.966;6.968;2022-11-27T05:44:51;7.10;94.10
46440;DHT22;32138;50.966;6.968;2022-11-27T05:45:52;7.10;93.90
46440;DHT22;32138;50.966;6.968;2022-11-27T05:46:53;6.90;94.20
46440;DHT22;32138;50.966;6.968;2022-11-27T05:47:53;6.90;94.10
46440;DHT22;32138;50.966;6.968;2022-11-27T05:48:54;7.00;94.10
46440;DHT22;32138;50.966;6.968;2022-11-27T05:49:55;7.00;94.30
46440;DHT22;32138;50.966;6.968;2022-11-27T05:50:56;7.00;94.40
46440;DHT22;32138;50.966;6.968;2022-11-27T05:51:56;6.90;94.20
46440;DHT22;32138;50.966;6.968;2022-11-27T05:52:57;7.00;94.40
46440;DHT22;32138;50.966;6.968;2022-11-27T05:53:58;7.00;94.20
46440;DHT22;32138;50.966;6.968;2022-11-27T05:54:59;7.10;94.20
46440;DHT22;32138;50.966;6.968;2022-11-27T05:56:01;7.20;94.00
46440;DHT22;32138;50.966;6.968;2022-11-27T05:57:03;7.00;93.90
46440;DHT22;32138;50.966;6.968;2022-11-27T05:58:04;7.10;94.10
46440;DHT22;32138;50.966;6.968;2022-11-27T05:59:05;7.10;94.10
46440;DHT22;32138;50.966;6.968;2022-11-27T06:00:06;7.10;94.10
46440;DHT22;32138;50.966;6.968;2022-11-27T06:01:09;7.00;94.00
46440;DHT22;32138;50.966;6.968;2022-11-27T06:02:10;7.00;94.40
46440;DHT22;32138;50.966;6.968;2022-11-27T06:03:11;7.10;94.10
46440;DHT22;32138;50.966;6.968;2022-11-27T06:04:12;7.20;94.20
46440;DHT22;32138;50.966;6.968;2022-11-27T06:05:13;7.20;94.30
46440;DHT22;32138;50.966;6.968;2022-11-27T06:06:16;7.20;93.80
46440;DHT22;32138;50.966;6.968;2022-11-27T06:07:18;7.20;93.80
46440;DHT22;32138;50.966;6.968;2022-11-27T06:08:19;7.20;93.80
46440;DHT22;32138;50.966;6.968;2022-11-27T06:09:20;7.00;94.00
46440;DHT22;32138;50.966;6.968;2022-11-27T06:10:20;7.00;94.20
46440;DHT22;32138;50.966;6.968;2022-11-27T06:11:21;7.10;94.30
46440;DHT22;32138;50.966;6.968;2022-11-27T06:12:22;7.10;94.20
46440;DHT22;32138;50.966;6.968;2022-11-27T06:13:23;7.10;94.20
46440;DHT22;32138;50.966;6.968;2022-11-27T06:14:24;7.20;94.00
46440;DHT22;32138;50.966;6.968;2022-11-27T06:15:24;7.10;94.10
46440;DHT22;32138;50.966;6.968;2022-11-27T06:16:25;7.10;94.10
46440;DHT22;32138;50.966;6.968;2022-11-27T06:17:26;7.20;94.20
46440;DHT22;32138;50.966;6.968;2022-11-27T06:18:27;7.20;94.00
46440;DHT22;32138;50.966;6.968;2022-11-27T06:19:28;7.10;94.10
46440;DHT22;32138;50.966;6.968;2022-11-27T06:20:29;7.10;94.10
46440;DHT22;32138;50.966;6.968;2022-11-27T06:21:30;7.10;94.30
46440;DHT22;32138;50.966;6.968;2022-11-27T06:22:30;7.00;94.40
46440;DHT22;32138;50.966;6.968;2022-11-27T06:23:31;7.10;94.50
46440;DHT22;32138;50.966;6.968;2022-11-27T06:24:32;7.20;94.10
46440;DHT22;32138;50.966;6.968;2022-11-27T06:25:33;7.20;94.10
46440;DHT22;32138;50.966;6.968;2022-11-27T06:26:34;7.20;94.10
46440;DHT22;32138;50.966;6.968;2022-11-27T06:27:35;7.10;94.40
46440;DHT22;32138;50.966;6.968;2022-11-27T06:28:36;7.10;94.20
46440;DHT22;32138;50.966;6.968;2022-11-27T06:29:37;7.10;94.30
46440;DHT22;32138;50.966;6.968;2022-11-27T06:30:37;7.00;94.40
46440;DHT22;32138;50.966;6.968;2022-11-27T06:31:39;7.10;94.30
46440;DHT22;32138;50.966;6.968;2022-11-27T06:32:40;7.20;94.20
46440;DHT22;32138;50.966;6.968;2022-11-27T06:33:40;7.30;94.10
46440;DHT22;32138;50.966;6.968;2022-11-27T06:34:41;7.20;94.10
46440;DHT22;32138;50.966;6.968;2022-11-27T06:35:42;7.20;94.30
46440;DHT22;32138;50.966;6.968;2022-11-27T06:36:43;7.20;94.20
46440;DHT22;32138;50.966;6.968;2022-11-27T06:37:43;7.30;94.10
46440;DHT22;32138;50.966;6.968;2022-11-27T06:38:45;7.20;94.10
46440;DHT22;32138;50.966;6.968;2022-11-27T06:39:47;7.20;94.20
46440;DHT22;32138;50.966;6.968;2022-11-27T06:40:48;7.20;94.20
46440;DHT22;32138;50.966;6.968;2022-11-27T06:41:49;7.30;94.20
46440;DHT22;32138;50.966;6.968;2022-11-27T06:42:50;7.20;94.20
46440;DHT22;32138;50.966;6.968;2022-11-27T06:43:51;7.20;94.20
46440;DHT22;32138;50.966;6.968;2022-11-27T06:44:52;7.20;94.10
46440;DHT22;32138;50.966;6.968;2022-11-27T06:45:57;7.20;94.30
46440;DHT22;32138;50.966;6.968;2022-11-27T06:46:58;7.30;94.20
46440;DHT22;32138;50.966;6.968;2022-11-27T06:47:59;7.20;94.20
46440;DHT22;32138;50.966;6.968;2022-11-27T06:49:00;7.20;94.20
46440;DHT22;32138;50.966;6.968;2022-11-27T06:50:01;7.10;94.40
46440;DHT22;32138;50.966;6.968;2022-11-27T06:51:04;7.10;94.50
46440;DHT22;32138;50.966;6.968;2022-11-27T06:52:05;7.10;94.40
46440;DHT22;32138;50.966;6.968;2022-11-27T06:53:06;7.30;94.40
46440;DHT22;32138;50.966;6.968;2022-11-27T06:54:06;7.40;94.20
46440;DHT22;32138;50.966;6.968;2022-11-27T06:55:07;7.40;94.20
46440;DHT22;32138;50.966;6.968;2022-11-27T06:56:11;7.30;94.00
46440;DHT22;32138;50.966;6.968;2022-11-27T06:57:14;7.20;94.20
46440;DHT22;32138;50.966;6.968;2022-11-27T06:58:14;7.30;94.20
46440;DHT22;32138;50.966;6.968;2022-11-27T06:59:16;7.20;94.20
46440;DHT22;32138;50.966;6.968;2022-11-27T07:00:18;7.20;94.40
46440;DHT22;32138;50.966;6.968;2022-11-27T07:01:20;7.20;94.30
46440;DHT22;32138;50.966;6.968;2022-11-27T07:02:21;7.20;94.30
46440;DHT22;32138;50.966;6.968;2022-11-27T07:03:22;7.30;94.20
46440;DHT22;32138;50.966;6.968;2022-11-27T07:04:22;7.20;94.20
46440;DHT22;32138;50.966;6.968;2022-11-27T07:05:23;7.20;94.30
46440;DHT22;32138;50.966;6.968;2022-11-27T07:06:25;7.20;94.60
46440;DHT22;32138;50.966;6.968;2022-11-27T07:07:26;7.30;94.40
46440;DHT22;32138;50.966;6.968;2022-11-27T07:08:27;7.40;94.50
46440;DHT22;32138;50.966;6.968;2022-11-27T07:09:28;7.30;94.30
46440;DHT22;32138;50.966;6.968;2022-11-27T07:10:32;7.30;94.10
46440;DHT22;32138;50.966;6.968;2022-11-27T07:11:34;7.30;94.30
46440;DHT22;32138;50.966;6.968;2022-11-27T07:12:35;7.30;94.30